createdAt,value
2018-07-31T00:01:07.721Z,53.92
2018-07-31T00:03:35.447Z,53.47
2018-07-31T00:06:03.126Z,54.25
2018-07-31T00:08:30.725Z,54.40
2018-07-31T00:10:58.366Z,53.83
2018-07-31T00:13:26.008Z,53.31
2018-07-31T00:15:54.082Z,52.96
2018-07-31T00:18:21.763Z,53.39
2018-07-31T00:20:49.629Z,53.13
2018-07-31T00:23:17.309Z,52.62
2018-07-31T00:25:45.276Z,52.47
2018-07-31T00:28:12.937Z,52.63
2018-07-31T00:30:40.876Z,52.65
2018-07-31T00:33:08.737Z,52.91
2018-07-31T00:35:36.661Z,52.76
2018-07-31T00:38:04.845Z,52.46
2018-07-31T00:40:32.468Z,52.49
2018-07-31T00:43:00.469Z,52.64
2018-07-31T00:45:28.120Z,53.45
2018-07-31T00:47:56.415Z,52.77
2018-07-31T00:50:24.039Z,52.95
2018-07-31T00:52:51.738Z,53.11
2018-07-31T00:55:19.364Z,53.09
2018-07-31T00:57:47.638Z,52.55
2018-07-31T01:00:15.750Z,52.59
2018-07-31T01:02:43.335Z,53.23
2018-07-31T01:05:11.257Z,53.58
2018-07-31T01:07:39.168Z,53.07
2018-07-31T01:10:06.788Z,52.82
2018-07-31T01:12:34.433Z,53.69
2018-07-31T01:15:02.329Z,53.05
2018-07-31T01:17:30.230Z,53.24
2018-07-31T01:19:58.176Z,53.64
2018-07-31T01:22:26.168Z,53.61
2018-07-31T01:24:53.868Z,53.44
2018-07-31T01:27:21.520Z,53.61
2018-07-31T01:29:49.414Z,53.15
2018-07-31T01:32:17.049Z,52.62
2018-07-31T01:34:45.125Z,52.78
2018-07-31T01:37:13.102Z,52.45
2018-07-31T01:39:40.770Z,52.22
2018-07-31T01:42:09.330Z,52.65
2018-07-31T01:44:36.960Z,52.00
2018-07-31T01:47:04.651Z,52.56
2018-07-31T01:49:32.629Z,51.20
2018-07-31T01:52:00.253Z,51.68
2018-07-31T01:54:27.953Z,51.69
2018-07-31T01:56:55.716Z,52.60
2018-07-31T01:59:23.698Z,51.59
2018-07-31T02:01:51.366Z,52.06
2018-07-31T02:04:19.062Z,51.83
2018-07-31T02:06:46.685Z,51.36
2018-07-31T02:09:14.301Z,52.29
2018-07-31T02:11:41.962Z,51.83
2018-07-31T02:14:10.171Z,51.92
2018-07-31T02:16:37.826Z,51.57
2018-07-31T02:19:05.496Z,52.04
2018-07-31T02:21:33.460Z,52.33
2018-07-31T02:24:01.136Z,52.39
2018-07-31T02:26:29.187Z,51.90
2018-07-31T02:28:57.808Z,51.79
2018-07-31T02:31:25.500Z,52.45
2018-07-31T02:33:53.781Z,52.40
2018-07-31T02:36:21.425Z,52.00
2018-07-31T02:38:49.486Z,52.53
2018-07-31T02:41:17.117Z,52.59
2018-07-31T02:43:44.808Z,51.85
2018-07-31T02:46:12.503Z,51.58
2018-07-31T02:48:40.168Z,52.66
2018-07-31T02:51:08.072Z,52.17
2018-07-31T02:53:35.755Z,51.95
2018-07-31T02:56:03.803Z,52.77
2018-07-31T02:58:31.436Z,52.21
2018-07-31T03:00:59.740Z,52.62
2018-07-31T03:03:27.810Z,52.62
2018-07-31T03:05:55.489Z,51.58
2018-07-31T03:08:23.370Z,52.36
2018-07-31T03:10:51.102Z,52.63
2018-07-31T03:13:18.758Z,52.42
2018-07-31T03:15:46.408Z,51.46
2018-07-31T03:18:14.228Z,51.40
2018-07-31T03:20:42.385Z,51.74
2018-07-31T03:23:10.003Z,52.26
2018-07-31T03:25:37.646Z,52.33
2018-07-31T03:28:05.704Z,51.55
2018-07-31T03:30:33.330Z,51.63
2018-07-31T03:33:01.437Z,51.75
2018-07-31T03:35:29.317Z,52.13
2018-07-31T03:37:57.247Z,51.99
2018-07-31T03:40:24.884Z,52.20
2018-07-31T03:42:53.161Z,51.82
2018-07-31T03:45:21.129Z,51.10
2018-07-31T03:47:49.035Z,52.01
2018-07-31T03:50:17.248Z,52.03
2018-07-31T03:52:44.867Z,51.68
2018-07-31T03:55:13.052Z,50.82
2018-07-31T03:57:41.325Z,50.62
2018-07-31T04:00:09.249Z,51.20
2018-07-31T04:02:36.902Z,50.75
2018-07-31T04:05:05.080Z,51.63
2018-07-31T04:07:33.240Z,50.65
2018-07-31T04:10:00.940Z,51.48
2018-07-31T04:12:28.952Z,51.48
2018-07-31T04:14:56.560Z,50.88
2018-07-31T04:17:24.451Z,50.90
2018-07-31T04:19:52.121Z,51.39
2018-07-31T04:22:19.854Z,50.75
2018-07-31T04:24:47.721Z,50.25
2018-07-31T04:27:15.469Z,50.11
2018-07-31T04:29:43.095Z,51.11
2018-07-31T04:32:11.477Z,50.67
2018-07-31T04:34:40.064Z,51.17
2018-07-31T04:37:07.846Z,49.88
2018-07-31T04:39:35.535Z,50.27
2018-07-31T04:42:03.367Z,50.12
2018-07-31T04:44:31.036Z,50.49
2018-07-31T04:46:58.756Z,50.30
2018-07-31T04:49:26.947Z,50.07
2018-07-31T04:51:54.765Z,49.57
2018-07-31T04:54:22.392Z,49.18
2018-07-31T04:56:50.103Z,49.65
2018-07-31T04:59:18.130Z,49.73
2018-07-31T05:01:45.813Z,48.75
2018-07-31T05:04:13.463Z,49.20
2018-07-31T05:06:41.120Z,48.29
2018-07-31T05:09:10.191Z,49.04
2018-07-31T05:11:37.863Z,49.38
2018-07-31T05:14:06.206Z,49.60
2018-07-31T05:16:33.849Z,49.49
2018-07-31T05:19:01.544Z,50.46
2018-07-31T05:21:29.453Z,49.72
2018-07-31T05:23:57.834Z,51.17
2018-07-31T05:26:26.330Z,50.61
2018-07-31T05:28:54.566Z,50.97
2018-07-31T05:31:22.295Z,50.55
2018-07-31T05:33:49.950Z,50.50
2018-07-31T05:36:17.622Z,50.50
2018-07-31T05:38:45.229Z,50.83
2018-07-31T05:41:13.605Z,50.61
2018-07-31T05:43:41.642Z,51.42
2018-07-31T05:46:09.271Z,50.03
2018-07-31T05:48:36.974Z,49.66
2018-07-31T05:51:04.665Z,50.40
2018-07-31T05:53:32.614Z,49.85
2018-07-31T05:56:00.728Z,49.67
2018-07-31T05:58:28.421Z,50.01
2018-07-31T06:00:56.164Z,49.27
2018-07-31T06:03:23.935Z,49.27
2018-07-31T06:05:51.654Z,49.92
2018-07-31T06:08:19.364Z,49.42
2018-07-31T06:10:47.118Z,49.48
2018-07-31T06:13:14.765Z,49.95
2018-07-31T06:15:42.864Z,49.22
2018-07-31T06:18:10.501Z,50.11
2018-07-31T06:20:38.171Z,50.36
2018-07-31T06:23:06.343Z,49.13
2018-07-31T06:25:34.305Z,49.65
2018-07-31T06:28:02.482Z,49.31
2018-07-31T06:30:30.154Z,48.86
2018-07-31T06:32:58.252Z,49.21
2018-07-31T06:35:26.256Z,49.44
2018-07-31T06:37:54.140Z,48.68
2018-07-31T06:40:21.911Z,48.90
2018-07-31T06:42:50.121Z,49.42
2018-07-31T06:45:17.760Z,49.03
2018-07-31T06:47:45.705Z,48.31
2018-07-31T06:50:13.365Z,47.92
2018-07-31T06:52:41.152Z,48.54
2018-07-31T06:55:09.059Z,48.15
2018-07-31T06:57:37.212Z,47.76
2018-07-31T07:00:05.409Z,48.43
2018-07-31T07:02:33.965Z,48.02
2018-07-31T07:05:02.174Z,47.11
2018-07-31T07:07:30.191Z,47.11
2018-07-31T07:09:57.947Z,47.15
2018-07-31T07:12:25.680Z,47.15
2018-07-31T07:14:53.695Z,47.71
2018-07-31T07:17:21.772Z,47.87
2018-07-31T07:19:49.401Z,46.66
2018-07-31T07:22:17.396Z,47.10
2018-07-31T07:24:45.090Z,46.93
2018-07-31T07:27:12.878Z,47.11
2018-07-31T07:29:40.941Z,47.33
2018-07-31T07:32:08.645Z,46.20
2018-07-31T07:34:36.610Z,47.15
2018-07-31T07:37:04.402Z,46.12
2018-07-31T07:39:32.324Z,46.75
2018-07-31T07:41:59.998Z,46.51
2018-07-31T07:44:27.678Z,46.22
2018-07-31T07:46:55.606Z,46.49
2018-07-31T07:49:23.651Z,46.51
2018-07-31T07:51:51.276Z,46.58
2018-07-31T07:54:18.980Z,45.99
2018-07-31T07:56:46.893Z,46.74
2018-07-31T07:59:14.569Z,46.60
2018-07-31T08:01:42.266Z,46.92
2018-07-31T08:04:10.053Z,46.73
2018-07-31T08:06:37.656Z,46.16
2018-07-31T08:09:07.869Z,46.10
2018-07-31T08:11:35.614Z,46.80
2018-07-31T08:14:03.508Z,46.95
2018-07-31T08:16:31.440Z,46.32
2018-07-31T08:18:59.102Z,45.96
2018-07-31T08:21:26.799Z,46.88
2018-07-31T08:23:54.692Z,47.50
2018-07-31T08:26:22.341Z,47.03
2018-07-31T08:28:50.263Z,46.50
2018-07-31T08:31:17.937Z,47.05
2018-07-31T08:33:45.615Z,45.99
2018-07-31T08:36:13.334Z,46.57
2018-07-31T08:38:41.346Z,46.18
2018-07-31T08:41:09.037Z,46.10
2018-07-31T08:43:37.007Z,46.31
2018-07-31T08:46:04.676Z,45.23
2018-07-31T08:48:32.771Z,45.52
2018-07-31T08:51:00.406Z,45.20
2018-07-31T08:53:28.685Z,45.47
2018-07-31T08:55:57.146Z,45.69
2018-07-31T08:58:24.810Z,45.33
2018-07-31T09:00:52.533Z,44.97
2018-07-31T09:03:20.164Z,45.49
2018-07-31T09:05:47.999Z,45.42
2018-07-31T09:08:15.965Z,45.56
2018-07-31T09:10:43.973Z,45.55
2018-07-31T09:13:11.979Z,44.76
2018-07-31T09:15:39.599Z,44.96
2018-07-31T09:18:07.445Z,45.05
2018-07-31T09:20:35.105Z,44.63
2018-07-31T09:23:02.849Z,44.89
2018-07-31T09:25:36.047Z,44.82
2018-07-31T09:28:04.033Z,44.85
2018-07-31T09:30:31.808Z,45.77
2018-07-31T09:33:05.046Z,45.94
2018-07-31T09:35:33.204Z,46.09
2018-07-31T09:38:00.906Z,45.43
2018-07-31T09:40:28.619Z,46.15
2018-07-31T09:42:56.616Z,45.54
2018-07-31T09:45:24.604Z,46.19
2018-07-31T09:47:52.346Z,45.43
2018-07-31T09:50:20.021Z,46.18
2018-07-31T09:52:47.698Z,45.99
2018-07-31T09:55:15.396Z,46.45
2018-07-31T09:57:43.056Z,45.81
2018-07-31T10:00:10.714Z,45.61
2018-07-31T10:02:38.772Z,45.56
2018-07-31T10:05:07.013Z,45.62
2018-07-31T10:07:35.246Z,45.15
2018-07-31T10:10:03.008Z,45.70
2018-07-31T10:12:30.695Z,45.22
2018-07-31T10:14:58.424Z,45.78
2018-07-31T10:17:26.132Z,46.03
2018-07-31T10:19:53.913Z,45.67
2018-07-31T10:22:24.306Z,46.40
2018-07-31T10:24:52.802Z,45.40
2018-07-31T10:27:20.504Z,45.88
2018-07-31T10:29:48.290Z,45.94
2018-07-31T10:32:16.006Z,45.39
2018-07-31T10:34:43.685Z,46.12
2018-07-31T10:37:11.921Z,45.48
2018-07-31T10:39:39.619Z,46.39
2018-07-31T10:42:08.418Z,45.46
2018-07-31T10:44:36.379Z,45.53
2018-07-31T10:47:05.033Z,45.61
2018-07-31T10:49:32.723Z,45.65
2018-07-31T10:52:00.778Z,46.17
2018-07-31T10:54:28.416Z,46.16
2018-07-31T10:56:56.154Z,46.10
2018-07-31T10:59:23.843Z,45.89
2018-07-31T11:01:51.516Z,46.36
2018-07-31T11:04:19.244Z,45.47
2018-07-31T11:06:47.214Z,45.36
2018-07-31T11:09:15.195Z,45.34
2018-07-31T11:11:42.871Z,45.78
2018-07-31T11:14:10.846Z,45.67
2018-07-31T11:16:38.473Z,45.58
2018-07-31T11:19:06.199Z,44.99
2018-07-31T11:21:34.116Z,45.38
2018-07-31T11:24:02.336Z,44.74
2018-07-31T11:26:30.243Z,44.82
2018-07-31T11:28:57.864Z,44.83
2018-07-31T11:31:25.583Z,44.91
2018-07-31T11:33:53.225Z,45.01
2018-07-31T11:36:21.075Z,45.56
2018-07-31T11:38:48.744Z,44.72
2018-07-31T11:41:16.391Z,45.29
2018-07-31T11:43:44.324Z,44.52
2018-07-31T11:46:11.977Z,44.36
2018-07-31T11:48:39.681Z,44.19
2018-07-31T11:51:07.308Z,44.19
2018-07-31T11:53:34.968Z,44.79
2018-07-31T11:56:02.689Z,43.93
2018-07-31T11:58:30.776Z,44.04
2018-07-31T12:00:58.574Z,44.67
2018-07-31T12:03:26.320Z,44.79
2018-07-31T12:05:54.848Z,44.20
2018-07-31T12:08:22.948Z,44.61
2018-07-31T12:10:50.837Z,44.66
2018-07-31T12:13:18.606Z,44.25
2018-07-31T12:15:46.732Z,44.04
2018-07-31T12:18:14.890Z,43.94
2018-07-31T12:20:42.662Z,43.88
2018-07-31T12:23:10.384Z,44.41
2018-07-31T12:25:38.077Z,44.25
2018-07-31T12:28:06.276Z,43.81
2018-07-31T12:30:34.446Z,43.85
2018-07-31T12:33:02.408Z,44.47
2018-07-31T12:35:30.098Z,44.43
2018-07-31T12:37:57.776Z,44.12
2018-07-31T12:40:25.992Z,44.25
2018-07-31T12:42:53.722Z,44.65
2018-07-31T12:45:21.353Z,44.67
2018-07-31T12:47:49.061Z,45.15
2018-07-31T12:50:17.397Z,44.90
2018-07-31T12:52:45.122Z,44.81
2018-07-31T12:55:13.121Z,44.75
2018-07-31T12:57:41.393Z,45.22
2018-07-31T13:00:09.071Z,45.14
2018-07-31T13:02:37.087Z,44.85
2018-07-31T13:05:05.158Z,44.72
2018-07-31T13:07:33.175Z,44.26
2018-07-31T13:10:01.228Z,44.89
2018-07-31T13:12:29.300Z,43.80
2018-07-31T13:14:56.983Z,43.87
2018-07-31T13:17:24.704Z,44.10
2018-07-31T13:19:52.866Z,43.52
2018-07-31T13:22:20.600Z,43.69
2018-07-31T13:24:48.518Z,43.65
2018-07-31T13:27:16.525Z,42.89
2018-07-31T13:29:44.912Z,43.58
2018-07-31T13:32:13.431Z,43.61
2018-07-31T13:34:41.724Z,43.08
2018-07-31T13:37:09.872Z,43.43
2018-07-31T13:39:37.931Z,42.55
2018-07-31T13:42:06.126Z,42.08
2018-07-31T13:44:33.868Z,42.14
2018-07-31T13:47:01.557Z,40.96
2018-07-31T13:49:29.585Z,41.86
2018-07-31T13:51:57.313Z,41.92
2018-07-31T13:54:25.563Z,41.87
2018-07-31T13:56:54.094Z,41.64
2018-07-31T13:59:22.240Z,41.40
2018-07-31T14:01:50.317Z,41.30
2018-07-31T14:04:17.951Z,41.27
2018-07-31T14:06:46.040Z,41.24
2018-07-31T14:09:13.750Z,40.92
2018-07-31T14:11:41.449Z,40.89
2018-07-31T14:14:09.180Z,40.54
2018-07-31T14:16:36.975Z,40.33
2018-07-31T14:19:04.743Z,40.21
2018-07-31T14:21:32.500Z,40.50
2018-07-31T14:24:00.164Z,40.54
2018-07-31T14:26:28.302Z,40.18
2018-07-31T14:28:56.497Z,39.47
2018-07-31T14:31:24.501Z,38.86
2018-07-31T14:33:52.696Z,39.36
2018-07-31T14:36:20.380Z,36.23
2018-07-31T14:38:48.403Z,33.75
2018-07-31T14:41:16.338Z,32.52
2018-07-31T14:43:44.000Z,31.98
2018-07-31T14:46:11.966Z,31.35
2018-07-31T14:48:39.618Z,31.31
2018-07-31T14:51:07.619Z,30.88
2018-07-31T14:53:35.849Z,30.47
2018-07-31T14:56:03.840Z,30.42
2018-07-31T14:58:31.788Z,30.42
2018-07-31T15:00:59.622Z,29.97
2018-07-31T15:03:27.345Z,30.95
2018-07-31T15:05:55.064Z,33.50
2018-07-31T15:08:23.224Z,35.24
2018-07-31T15:10:51.211Z,36.21
2018-07-31T15:13:18.927Z,37.34
2018-07-31T15:15:46.991Z,38.23
2018-07-31T15:18:14.759Z,38.25
2018-07-31T15:20:42.806Z,37.85
2018-07-31T15:23:10.820Z,38.61
2018-07-31T15:25:38.726Z,38.96
2018-07-31T15:28:06.415Z,40.33
2018-07-31T15:30:34.360Z,42.33
2018-07-31T15:33:02.112Z,44.08
2018-07-31T15:35:30.168Z,44.96
2018-07-31T15:37:57.976Z,46.06
2018-07-31T15:40:25.813Z,46.25
2018-07-31T15:42:53.510Z,46.29
2018-07-31T15:45:21.425Z,47.41
2018-07-31T15:47:49.092Z,46.70
2018-07-31T15:50:16.742Z,47.78
2018-07-31T15:52:44.450Z,47.50
2018-07-31T15:55:12.097Z,48.10
2018-07-31T15:57:40.002Z,47.50
2018-07-31T16:00:09.547Z,48.26
2018-07-31T16:02:37.613Z,47.95
2018-07-31T16:05:05.388Z,48.00
2018-07-31T16:07:33.647Z,48.02
2018-07-31T16:10:01.628Z,48.66
2018-07-31T16:12:30.021Z,47.89
2018-07-31T16:14:57.708Z,48.29
2018-07-31T16:17:25.473Z,49.43
2018-07-31T16:19:53.269Z,48.32
2018-07-31T16:22:21.194Z,48.63
2018-07-31T16:24:49.109Z,49.13
2018-07-31T16:27:17.197Z,48.87
2018-07-31T16:29:45.269Z,48.85
2018-07-31T16:32:13.262Z,49.74
2018-07-31T16:34:40.944Z,49.09
2018-07-31T16:37:08.659Z,48.23
2018-07-31T16:39:36.354Z,48.26
2018-07-31T16:42:04.315Z,48.90
2018-07-31T16:44:32.285Z,48.82
2018-07-31T16:46:59.941Z,48.77
2018-07-31T16:49:27.709Z,48.91
2018-07-31T16:51:55.421Z,48.90
2018-07-31T16:54:23.036Z,48.85
2018-07-31T16:56:50.915Z,48.66
2018-07-31T16:59:19.049Z,48.30
2018-07-31T17:01:47.115Z,49.48
2018-07-31T17:04:14.782Z,48.34
2018-07-31T17:06:43.033Z,47.93
2018-07-31T17:09:11.017Z,48.39
2018-07-31T17:11:38.697Z,49.09
2018-07-31T17:14:06.683Z,47.65
2018-07-31T17:16:34.669Z,47.84
2018-07-31T17:19:02.334Z,47.91
2018-07-31T17:21:30.076Z,47.06
2018-07-31T17:23:57.737Z,47.82
2018-07-31T17:26:25.745Z,47.66
2018-07-31T17:28:53.453Z,46.95
2018-07-31T17:31:21.095Z,47.43
2018-07-31T17:33:48.775Z,47.43
2018-07-31T17:36:16.422Z,47.16
2018-07-31T17:38:44.125Z,47.03
2018-07-31T17:41:12.024Z,46.30
2018-07-31T17:43:39.725Z,46.75
2018-07-31T17:46:08.321Z,45.64
2018-07-31T17:48:36.050Z,45.90
2018-07-31T17:51:03.932Z,44.20
2018-07-31T17:53:31.979Z,44.99
2018-07-31T17:55:59.909Z,44.56
2018-07-31T17:58:27.867Z,43.96
2018-07-31T18:00:55.860Z,44.37
2018-07-31T18:03:24.039Z,44.19
2018-07-31T18:05:51.977Z,43.01
2018-07-31T18:08:19.690Z,43.03
2018-07-31T18:10:47.397Z,42.30
2018-07-31T18:13:15.084Z,43.32
2018-07-31T18:15:42.793Z,42.51
2018-07-31T18:18:10.421Z,41.92
2018-07-31T18:20:38.058Z,42.18
2018-07-31T18:23:05.780Z,42.96
2018-07-31T18:25:33.436Z,43.09
2018-07-31T18:28:01.470Z,42.86
2018-07-31T18:30:29.461Z,43.21
2018-07-31T18:32:57.184Z,44.11
2018-07-31T18:35:25.194Z,43.62
2018-07-31T18:37:52.865Z,43.57
2018-07-31T18:40:20.861Z,44.29
2018-07-31T18:42:48.498Z,44.98
2018-07-31T18:45:16.452Z,45.14
2018-07-31T18:47:44.385Z,46.17
2018-07-31T18:50:12.054Z,46.79
2018-07-31T18:52:39.749Z,46.48
2018-07-31T18:55:07.678Z,47.17
2018-07-31T18:57:35.345Z,48.17
2018-07-31T19:00:03.397Z,48.51
2018-07-31T19:02:31.068Z,48.61
2018-07-31T19:04:58.877Z,48.34
2018-07-31T19:07:26.796Z,48.59
2018-07-31T19:09:54.902Z,49.35
2018-07-31T19:12:23.109Z,50.05
2018-07-31T19:14:50.785Z,50.10
2018-07-31T19:17:18.421Z,50.66
2018-07-31T19:19:46.508Z,50.62
2018-07-31T19:22:14.674Z,50.99
2018-07-31T19:24:42.350Z,51.52
2018-07-31T19:27:10.077Z,52.41
2018-07-31T19:29:37.801Z,52.27
2018-07-31T19:32:05.705Z,53.04
2018-07-31T19:34:33.412Z,53.20
2018-07-31T19:37:01.505Z,53.44
2018-07-31T19:39:29.286Z,53.72
2018-07-31T19:41:57.349Z,54.45
2018-07-31T19:44:25.011Z,54.26
2018-07-31T19:46:52.710Z,55.32
2018-07-31T19:49:20.412Z,55.29
2018-07-31T19:51:48.585Z,55.80
2018-07-31T19:54:16.313Z,56.41
2018-07-31T19:56:44.654Z,56.19
2018-07-31T19:59:13.118Z,55.98
2018-07-31T20:01:40.982Z,56.62
2018-07-31T20:04:09.236Z,56.83
2018-07-31T20:06:37.174Z,56.62
2018-07-31T20:09:06.299Z,57.20
2018-07-31T20:11:34.189Z,57.51
2018-07-31T20:14:01.960Z,56.54
2018-07-31T20:16:29.833Z,57.24
2018-07-31T20:18:57.512Z,57.67
2018-07-31T20:21:25.576Z,58.00
2018-07-31T20:23:53.437Z,57.37
2018-07-31T20:26:21.129Z,57.66
2018-07-31T20:28:48.800Z,58.25
2018-07-31T20:31:16.773Z,58.27
2018-07-31T20:33:44.504Z,57.54
2018-07-31T20:36:12.197Z,58.30
2018-07-31T20:38:39.883Z,58.70
2018-07-31T20:41:08.156Z,58.34
2018-07-31T20:43:36.321Z,59.42
2018-07-31T20:46:04.301Z,60.25
2018-07-31T20:48:31.943Z,61.05
2018-07-31T20:51:00.111Z,61.66
2018-07-31T20:53:28.400Z,61.34
2018-07-31T20:55:56.330Z,62.33
2018-07-31T20:58:26.895Z,62.43
2018-07-31T21:00:54.866Z,62.73
2018-07-31T21:03:22.535Z,62.09
2018-07-31T21:05:50.721Z,62.21
2018-07-31T21:08:18.670Z,62.30
2018-07-31T21:10:46.365Z,63.28
2018-07-31T21:13:14.249Z,62.70
2018-07-31T21:15:42.241Z,63.06
2018-07-31T21:18:09.912Z,63.19
2018-07-31T21:20:37.560Z,62.72
2018-07-31T21:23:05.564Z,63.36
2018-07-31T21:25:33.295Z,63.43
2018-07-31T21:28:00.927Z,63.34
2018-07-31T21:30:28.625Z,62.94
2018-07-31T21:32:56.283Z,63.23
2018-07-31T21:35:24.244Z,63.28
2018-07-31T21:37:52.035Z,64.13
2018-07-31T21:40:19.658Z,63.57
2018-07-31T21:42:47.735Z,64.31
2018-07-31T21:45:15.942Z,64.40
2018-07-31T21:47:43.760Z,63.22
2018-07-31T21:50:11.465Z,63.17
2018-07-31T21:52:40.084Z,63.40
2018-07-31T21:55:08.349Z,63.63
2018-07-31T21:57:36.013Z,63.76
2018-07-31T22:00:05.695Z,64.40
2018-07-31T22:02:33.342Z,63.67
2018-07-31T22:05:01.210Z,64.11
2018-07-31T22:07:29.339Z,63.59
2018-07-31T22:09:57.236Z,63.56
2018-07-31T22:12:24.908Z,62.42
2018-07-31T22:14:52.547Z,62.41
2018-07-31T22:17:20.200Z,62.18
2018-07-31T22:19:47.854Z,62.50
2018-07-31T22:22:15.565Z,62.16
2018-07-31T22:24:43.247Z,62.73
2018-07-31T22:27:10.881Z,62.12
2018-07-31T22:29:39.045Z,63.07
2018-07-31T22:32:06.754Z,62.92
2018-07-31T22:34:34.913Z,62.30
2018-07-31T22:37:02.829Z,62.56
2018-07-31T22:39:30.740Z,62.37
2018-07-31T22:41:58.387Z,62.37
2018-07-31T22:44:26.048Z,63.05
2018-07-31T22:46:53.861Z,62.21
2018-07-31T22:49:21.569Z,62.19
2018-07-31T22:51:49.254Z,62.84
2018-07-31T22:54:17.056Z,62.18
2018-07-31T22:56:45.002Z,62.49
2018-07-31T22:59:12.929Z,62.32
2018-07-31T23:01:41.322Z,62.56
2018-07-31T23:04:08.992Z,62.18
2018-07-31T23:06:36.889Z,62.79
2018-07-31T23:09:07.269Z,61.65
2018-07-31T23:11:35.244Z,61.60
2018-07-31T23:14:02.964Z,62.57
2018-07-31T23:16:30.587Z,62.70
2018-07-31T23:18:58.274Z,62.29
2018-07-31T23:21:25.937Z,62.45
2018-07-31T23:23:53.601Z,63.08
2018-07-31T23:26:21.317Z,62.20
2018-07-31T23:28:49.220Z,62.22
2018-07-31T23:31:16.916Z,62.18
2018-07-31T23:33:44.619Z,62.85
2018-07-31T23:36:12.883Z,63.13
2018-07-31T23:38:40.561Z,62.17
2018-07-31T23:41:08.618Z,62.66
2018-07-31T23:43:36.699Z,62.06
2018-07-31T23:46:04.565Z,62.30
2018-07-31T23:48:32.230Z,62.65
2018-07-31T23:50:59.880Z,63.03
2018-07-31T23:53:27.543Z,62.87
2018-07-31T23:55:55.620Z,62.35
2018-07-31T23:58:23.334Z,63.05
